createdAt,value
2023-07-15T00:02:52.997Z,35.53
2023-07-15T00:07:54.361Z,35.00
2023-07-15T00:12:55.680Z,35.20
2023-07-15T00:17:57.090Z,35.17
2023-07-15T00:22:58.435Z,35.63
2023-07-15T00:27:59.814Z,35.36
2023-07-15T00:33:01.208Z,35.70
2023-07-15T00:38:02.782Z,35.89
2023-07-15T00:43:22.868Z,35.54
2023-07-15T00:48:24.569Z,35.54
2023-07-15T00:53:25.887Z,35.41
2023-07-15T00:58:27.187Z,35.48
2023-07-15T01:03:28.587Z,35.92
2023-07-15T01:08:30.008Z,35.46
2023-07-15T01:13:31.304Z,35.72
2023-07-15T01:18:32.665Z,35.73
2023-07-15T01:23:34.259Z,36.09
2023-07-15T01:28:37.498Z,36.24
2023-07-15T01:33:38.945Z,36.02
2023-07-15T01:38:41.504Z,36.25
2023-07-15T01:43:42.819Z,36.06
2023-07-15T01:48:44.687Z,36.13
2023-07-15T01:53:45.990Z,36.37
2023-07-15T01:58:47.461Z,36.10
2023-07-15T02:03:49.035Z,36.10
2023-07-15T02:08:50.604Z,35.79
2023-07-15T02:13:52.005Z,36.08
2023-07-15T02:18:53.315Z,36.12
2023-07-15T02:23:54.633Z,35.98
2023-07-15T02:28:58.861Z,36.35
2023-07-15T02:34:00.184Z,35.94
2023-07-15T02:39:01.484Z,36.00
2023-07-15T02:44:02.821Z,36.05
2023-07-15T02:49:04.133Z,35.95
2023-07-15T02:54:05.435Z,36.29
2023-07-15T02:59:06.731Z,36.30
2023-07-15T03:04:08.069Z,36.15
2023-07-15T03:09:09.374Z,36.14
2023-07-15T03:14:10.758Z,35.73
2023-07-15T03:19:12.178Z,35.63
2023-07-15T03:24:13.552Z,36.11
2023-07-15T03:29:14.935Z,35.80
2023-07-15T03:34:16.538Z,36.25
2023-07-15T03:39:17.868Z,36.21
2023-07-15T03:44:19.399Z,36.02
2023-07-15T03:49:20.736Z,36.45
2023-07-15T03:54:22.453Z,36.38
2023-07-15T03:59:23.733Z,36.64
2023-07-15T04:04:25.089Z,36.26
2023-07-15T04:09:26.415Z,36.50
2023-07-15T04:14:27.862Z,36.44
2023-07-15T04:19:29.222Z,36.45
2023-07-15T04:24:30.547Z,36.15
2023-07-15T04:29:34.475Z,36.40
2023-07-15T04:34:35.821Z,36.03
2023-07-15T04:39:37.106Z,36.09
2023-07-15T04:44:38.405Z,35.58
2023-07-15T04:49:39.777Z,35.35
2023-07-15T04:54:41.108Z,35.26
2023-07-15T04:59:42.395Z,35.22
2023-07-15T05:04:43.760Z,34.98
2023-07-15T05:09:46.421Z,34.96
2023-07-15T05:14:48.227Z,35.29
2023-07-15T05:19:49.750Z,35.00
2023-07-15T05:24:51.142Z,34.93
2023-07-15T05:29:52.432Z,35.40
2023-07-15T05:34:53.726Z,35.04
2023-07-15T05:39:55.034Z,35.32
2023-07-15T05:44:56.344Z,35.18
2023-07-15T05:49:57.690Z,35.20
2023-07-15T05:54:59.028Z,35.87
2023-07-15T06:00:00.519Z,35.84
2023-07-15T06:05:01.989Z,35.81
2023-07-15T06:10:03.562Z,36.19
2023-07-15T06:15:05.878Z,36.03
2023-07-15T06:20:07.377Z,35.81
2023-07-15T06:25:08.872Z,36.34
2023-07-15T06:30:10.255Z,36.57
2023-07-15T06:35:11.596Z,36.57
2023-07-15T06:40:13.154Z,36.55
2023-07-15T06:45:14.696Z,36.81
2023-07-15T06:50:16.129Z,36.36
2023-07-15T06:55:17.606Z,36.46
2023-07-15T07:00:18.962Z,36.68
2023-07-15T07:05:20.474Z,37.10
2023-07-15T07:10:21.880Z,37.13
2023-07-15T07:15:23.231Z,37.12
2023-07-15T07:20:24.632Z,37.31
2023-07-15T07:25:25.970Z,37.21
2023-07-15T07:30:28.400Z,37.24
2023-07-15T07:35:29.733Z,37.31
2023-07-15T07:40:31.040Z,37.58
2023-07-15T07:45:32.345Z,37.44
2023-07-15T07:50:34.317Z,37.59
2023-07-15T07:55:35.805Z,37.51
2023-07-15T08:00:37.100Z,37.96
2023-07-15T08:05:44.540Z,37.99
2023-07-15T08:10:45.859Z,38.02
2023-07-15T08:15:47.226Z,37.78
2023-07-15T08:20:48.586Z,37.48
2023-07-15T08:25:49.875Z,37.93
2023-07-15T08:30:51.194Z,38.14
2023-07-15T08:35:52.643Z,38.12
2023-07-15T08:40:53.930Z,37.80
2023-07-15T08:45:56.255Z,37.70
2023-07-15T08:50:57.835Z,37.29
2023-07-15T08:55:59.169Z,36.92
2023-07-15T09:01:00.454Z,36.99
2023-07-15T09:06:03.370Z,36.95
2023-07-15T09:11:06.240Z,36.48
2023-07-15T09:16:07.599Z,36.46
2023-07-15T09:21:09.649Z,36.09
2023-07-15T09:26:11.155Z,35.70
2023-07-15T09:31:12.832Z,35.74
2023-07-15T09:36:14.345Z,35.58
2023-07-15T09:41:19.355Z,35.03
2023-07-15T09:46:21.464Z,35.03
2023-07-15T09:51:22.800Z,34.36
2023-07-15T09:56:25.095Z,33.86
2023-07-15T10:01:33.282Z,32.27
2023-07-15T10:06:34.896Z,31.72
2023-07-15T10:11:36.196Z,31.71
2023-07-15T10:16:38.946Z,30.58
2023-07-15T10:21:40.362Z,30.44
2023-07-15T10:26:47.937Z,30.39
2023-07-15T10:32:08.046Z,30.62
2023-07-15T10:37:12.603Z,30.70
2023-07-15T10:42:17.458Z,31.61
2023-07-15T10:47:18.855Z,31.64
2023-07-15T10:52:22.230Z,32.03
2023-07-15T10:57:23.531Z,32.52
2023-07-15T11:02:24.863Z,32.39
2023-07-15T11:07:26.218Z,32.01
2023-07-15T11:12:27.533Z,32.17
2023-07-15T11:17:28.958Z,32.20
2023-07-15T11:22:30.402Z,32.33
2023-07-15T11:27:31.808Z,32.94
2023-07-15T11:32:33.155Z,33.10
2023-07-15T11:37:34.489Z,33.93
2023-07-15T11:42:36.182Z,33.83
2023-07-15T11:47:37.523Z,34.41
2023-07-15T11:52:44.641Z,34.34
2023-07-15T11:57:47.501Z,34.15
2023-07-15T12:02:48.856Z,34.31
2023-07-15T12:07:50.522Z,34.30
2023-07-15T12:12:51.826Z,34.18
2023-07-15T12:17:53.139Z,34.01
2023-07-15T12:22:57.168Z,33.95
2023-07-15T12:27:58.482Z,33.75
2023-07-15T12:32:59.807Z,34.11
2023-07-15T12:38:01.138Z,34.21
2023-07-15T12:43:02.441Z,34.10
2023-07-15T12:48:03.928Z,33.96
2023-07-15T12:53:05.362Z,34.43
2023-07-15T12:58:06.678Z,34.72
2023-07-15T13:03:08.437Z,34.68
2023-07-15T13:08:09.934Z,34.31
2023-07-15T13:13:11.305Z,34.17
2023-07-15T13:18:13.042Z,33.72
2023-07-15T13:23:14.529Z,34.07
2023-07-15T13:28:18.697Z,33.62
2023-07-15T13:33:21.138Z,33.58
2023-07-15T13:38:22.436Z,33.48
2023-07-15T13:43:23.735Z,33.96
2023-07-15T13:48:25.047Z,34.11
2023-07-15T13:53:26.344Z,33.85
2023-07-15T13:58:27.647Z,33.62
2023-07-15T14:03:29.046Z,33.45
2023-07-15T14:08:30.400Z,33.67
2023-07-15T14:13:33.578Z,33.95
2023-07-15T14:18:36.365Z,34.06
2023-07-15T14:23:37.785Z,34.18
2023-07-15T14:28:39.395Z,33.90
2023-07-15T14:33:40.689Z,33.88
2023-07-15T14:38:41.992Z,33.34
2023-07-15T14:43:43.300Z,33.31
2023-07-15T14:48:44.636Z,33.55
2023-07-15T14:53:45.914Z,33.44
2023-07-15T14:58:47.211Z,33.54
2023-07-15T15:03:48.631Z,33.22
2023-07-15T15:08:49.984Z,33.19
2023-07-15T15:13:51.370Z,33.40
2023-07-15T15:18:52.703Z,33.28
2023-07-15T15:23:54.091Z,33.05
2023-07-15T15:28:55.827Z,33.12
2023-07-15T15:33:57.141Z,33.59
2023-07-15T15:38:58.466Z,33.81
2023-07-15T15:43:59.768Z,33.49
2023-07-15T15:49:02.628Z,33.60
2023-07-15T15:54:04.503Z,33.80
2023-07-15T15:59:06.629Z,33.27
2023-07-15T16:04:07.941Z,32.76
2023-07-15T16:09:09.296Z,32.77
2023-07-15T16:14:10.608Z,32.45
2023-07-15T16:19:11.902Z,32.17
2023-07-15T16:24:13.236Z,32.55
2023-07-15T16:29:14.585Z,32.35
2023-07-15T16:34:17.755Z,32.50
2023-07-15T16:39:19.059Z,32.41
2023-07-15T16:44:20.366Z,32.22
2023-07-15T16:49:21.643Z,32.05
2023-07-15T16:54:22.948Z,31.99
2023-07-15T16:59:24.239Z,31.93
2023-07-15T17:04:25.533Z,32.58
2023-07-15T17:09:29.956Z,32.15
2023-07-15T17:14:31.449Z,31.87
2023-07-15T17:19:32.798Z,31.93
2023-07-15T17:24:34.102Z,32.18
2023-07-15T17:29:35.402Z,32.39
2023-07-15T17:34:36.678Z,32.35
2023-07-15T17:39:37.975Z,32.41
2023-07-15T17:44:39.353Z,32.02
2023-07-15T17:49:40.663Z,32.19
2023-07-15T17:54:41.960Z,32.15
2023-07-15T17:59:43.265Z,32.45
2023-07-15T18:04:48.426Z,32.42
2023-07-15T18:09:49.744Z,32.87
2023-07-15T18:14:51.034Z,33.00
2023-07-15T18:19:52.345Z,33.50
2023-07-15T18:24:54.086Z,33.37
2023-07-15T18:29:55.444Z,33.66
2023-07-15T18:34:58.603Z,33.71
2023-07-15T18:39:59.990Z,33.83
2023-07-15T18:45:01.311Z,33.91
2023-07-15T18:50:02.667Z,33.83
2023-07-15T18:55:04.132Z,34.10
2023-07-15T19:00:05.694Z,34.65
2023-07-15T19:05:07.343Z,34.64
2023-07-15T19:10:09.324Z,35.34
2023-07-15T19:15:10.707Z,35.43
2023-07-15T19:20:12.023Z,35.83
2023-07-15T19:25:13.327Z,35.64
2023-07-15T19:30:14.643Z,35.62
2023-07-15T19:35:15.940Z,35.31
2023-07-15T19:40:17.270Z,35.25
2023-07-15T19:45:18.620Z,35.07
2023-07-15T19:50:20.075Z,34.73
2023-07-15T19:55:22.386Z,34.22
2023-07-15T20:00:23.681Z,34.25
2023-07-15T20:05:24.954Z,33.97
2023-07-15T20:10:26.358Z,34.37
2023-07-15T20:15:27.770Z,34.58
2023-07-15T20:20:29.960Z,34.19
2023-07-15T20:25:31.245Z,34.36
2023-07-15T20:30:32.532Z,33.94
2023-07-15T20:35:33.822Z,33.95
2023-07-15T20:40:46.084Z,34.24
2023-07-15T20:45:56.320Z,33.99
2023-07-15T20:50:57.717Z,34.66
2023-07-15T20:55:59.129Z,35.71
2023-07-15T21:01:00.486Z,36.65
2023-07-15T21:06:02.477Z,36.96
2023-07-15T21:11:03.875Z,37.34
2023-07-15T21:16:05.345Z,38.22
2023-07-15T21:21:06.658Z,38.79
2023-07-15T21:26:08.055Z,39.07
2023-07-15T21:31:09.514Z,39.82
2023-07-15T21:36:10.848Z,39.62
2023-07-15T21:41:12.162Z,39.77
2023-07-15T21:46:13.692Z,40.16
2023-07-15T21:51:15.348Z,40.88
2023-07-15T21:56:16.902Z,40.69
2023-07-15T22:01:18.528Z,40.40
2023-07-15T22:06:20.047Z,40.85
2023-07-15T22:11:21.379Z,41.13
2023-07-15T22:16:22.728Z,40.88
2023-07-15T22:21:24.078Z,41.30
2023-07-15T22:26:25.403Z,41.28
2023-07-15T22:31:28.180Z,41.40
2023-07-15T22:36:29.531Z,41.41
2023-07-15T22:41:30.836Z,41.25
2023-07-15T22:46:32.228Z,41.82
2023-07-15T22:51:33.595Z,41.77
2023-07-15T22:56:34.880Z,42.06
2023-07-15T23:01:36.400Z,42.15
2023-07-15T23:06:37.815Z,42.38
2023-07-15T23:11:39.264Z,42.00
2023-07-15T23:16:40.587Z,42.52
2023-07-15T23:21:41.964Z,42.32
2023-07-15T23:26:43.273Z,42.41
2023-07-15T23:31:44.569Z,42.59
2023-07-15T23:36:45.889Z,42.25
2023-07-15T23:41:47.187Z,42.12
2023-07-15T23:46:48.634Z,42.50
2023-07-15T23:51:50.014Z,42.62
2023-07-15T23:56:51.340Z,42.75
